Time;durP1;ratioP1;P1;durP2;ratioP2;P2;SDS_P1;SDS_P2;PMS_P1;PMS_P2;Temp;Humidity;BMP_temperature;BMP_pressure;BME280_temperature;BME280_humidity;BME280_pressure;Samples;Min_cycle;Max_cycle;Signal;HPM_P1;HPM_P2
2022/03/15 00:00:27;;;;;;;2.83;2.30;;;7.50;99.90;;;;;;4971626;28;20203;-61
2022/03/15 00:02:56;;;;;;;2.55;1.80;;;7.50;99.90;;;;;;4968591;28;20290;-61
2022/03/15 00:05:25;;;;;;;2.90;1.90;;;7.50;99.90;;;;;;4971651;28;20209;-61
2022/03/15 00:07:53;;;;;;;3.08;1.95;;;7.40;99.90;;;;;;4971994;28;20652;-61
2022/03/15 00:10:21;;;;;;;3.88;2.33;;;7.50;99.90;;;;;;4971925;28;20226;-62
2022/03/15 00:12:52;;;;;;;4.45;2.40;;;7.30;99.90;;;;;;4972083;28;20767;-61
2022/03/15 00:15:20;;;;;;;4.90;2.30;;;7.30;99.90;;;;;;4972052;28;20638;-61
2022/03/15 00:17:48;;;;;;;3.15;2.28;;;7.40;99.90;;;;;;4971819;28;20886;-62
2022/03/15 00:20:21;;;;;;;5.93;1.92;;;7.40;99.90;;;;;;4971568;28;20301;-61
2022/03/15 00:22:50;;;;;;;4.60;2.15;;;7.40;99.90;;;;;;4971703;28;20325;-62
2022/03/15 00:25:18;;;;;;;3.67;2.20;;;7.30;99.90;;;;;;4973054;28;20234;-61
2022/03/15 00:27:49;;;;;;;6.47;2.25;;;7.40;99.90;;;;;;4975850;28;20226;-62
2022/03/15 00:30:20;;;;;;;4.25;2.33;;;7.60;99.90;;;;;;4975410;28;20238;-61
2022/03/15 00:32:49;;;;;;;3.08;2.25;;;7.70;99.90;;;;;;4975512;28;20312;-62
2022/03/15 00:35:18;;;;;;;5.07;2.30;;;7.60;99.90;;;;;;4975451;28;20230;-61
2022/03/15 00:37:47;;;;;;;3.38;2.15;;;7.60;99.90;;;;;;4975455;28;20293;-62
2022/03/15 00:40:17;;;;;;;3.58;2.17;;;7.70;99.90;;;;;;4975744;28;20214;-63
2022/03/15 00:42:51;;;;;;;3.95;2.00;;;7.90;99.90;;;;;;4975076;28;20219;-62
2022/03/15 00:45:22;;;;;;;4.85;1.90;;;8.00;99.90;;;;;;4975448;28;20206;-62
2022/03/15 00:47:51;;;;;;;3.20;1.90;;;8.00;99.90;;;;;;4975565;28;20195;-62
2022/03/15 00:50:19;;;;;;;3.08;1.83;;;8.20;99.90;;;;;;4975045;28;20732;-61
2022/03/15 00:52:47;;;;;;;3.97;2.30;;;8.20;99.90;;;;;;4975150;28;20233;-62
2022/03/15 00:55:15;;;;;;;6.20;2.50;;;8.00;99.90;;;;;;4975296;28;20286;-62
2022/03/15 00:57:43;;;;;;;4.10;2.85;;;7.70;99.90;;;;;;4975682;28;20293;-61
2022/03/15 01:00:16;;;;;;;3.60;2.05;;;7.60;99.90;;;;;;4974579;28;20198;-61
2022/03/15 01:02:45;;;;;;;4.80;2.53;;;7.40;99.90;;;;;;4975004;28;20306;-62
2022/03/15 01:05:13;;;;;;;2.67;2.00;;;7.30;99.90;;;;;;4974858;28;20569;-62
2022/03/15 01:07:41;;;;;;;4.35;2.22;;;7.40;99.90;;;;;;4975195;28;20285;-61
2022/03/15 01:10:10;;;;;;;6.55;2.65;;;7.40;99.90;;;;;;4974510;28;20720;-61
2022/03/15 01:12:37;;;;;;;3.97;2.20;;;7.50;99.90;;;;;;4975087;28;20766;-62
2022/03/15 01:15:07;;;;;;;8.73;2.88;;;7.60;99.90;;;;;;4974949;28;20261;-62
2022/03/15 01:17:35;;;;;;;4.38;2.63;;;7.60;99.90;;;;;;4969371;28;20241;-62
2022/03/15 01:20:06;;;;;;;4.40;2.33;;;7.40;99.90;;;;;;4968490;28;20687;-61
2022/03/15 01:22:34;;;;;;;4.50;2.72;;;7.30;99.90;;;;;;4968721;28;20274;-61
2022/03/15 01:25:02;;;;;;;5.45;2.63;;;7.40;99.90;;;;;;4975272;28;20301;-62
2022/03/15 01:27:30;;;;;;;6.97;2.75;;;7.40;99.90;;;;;;4975133;28;20198;-62
2022/03/15 01:29:58;;;;;;;8.93;3.35;;;7.20;99.90;;;;;;4974648;28;20237;-61
2022/03/15 01:32:26;;;;;;;5.93;3.50;;;7.00;99.90;;;;;;4974081;28;20653;-60
2022/03/15 01:34:54;;;;;;;6.13;3.60;;;7.00;99.90;;;;;;4973474;28;20668;-61
2022/03/15 01:37:23;;;;;;;3.90;3.00;;;6.90;99.90;;;;;;4973375;28;20222;-62
2022/03/15 01:39:51;;;;;;;4.65;3.55;;;7.00;99.90;;;;;;4974211;28;20206;-62
2022/03/15 01:42:19;;;;;;;4.80;3.70;;;7.00;99.90;;;;;;4974351;28;20307;-60
2022/03/15 01:44:49;;;;;;;6.10;3.80;;;7.00;99.90;;;;;;4974511;28;20281;-61
2022/03/15 01:47:17;;;;;;;5.53;4.10;;;6.80;99.90;;;;;;4968781;28;20245;-62
2022/03/15 01:49:45;;;;;;;4.43;3.22;;;6.70;99.90;;;;;;4967834;28;20251;-63
2022/03/15 01:52:15;;;;;;;5.72;4.25;;;6.70;99.90;;;;;;4967860;28;20326;-60
2022/03/15 01:54:46;;;;;;;5.15;4.00;;;6.60;99.90;;;;;;4970107;28;20226;-62
2022/03/15 01:57:14;;;;;;;7.43;3.60;;;6.60;99.90;;;;;;4974445;28;20234;-62
2022/03/15 01:59:42;;;;;;;6.03;3.80;;;6.50;99.90;;;;;;4974022;28;20644;-61
2022/03/15 02:02:11;;;;;;;6.60;3.78;;;6.50;99.90;;;;;;4973296;28;20309;-62
2022/03/15 02:04:39;;;;;;;4.75;4.10;;;6.40;99.90;;;;;;4973479;28;20197;-61
2022/03/15 02:07:09;;;;;;;5.60;4.38;;;6.40;99.90;;;;;;4974084;28;20230;-62
2022/03/15 02:09:37;;;;;;;4.72;4.30;;;6.50;99.90;;;;;;4974167;28;20257;-62
2022/03/15 02:12:08;;;;;;;8.60;4.05;;;6.40;99.90;;;;;;4973369;28;20242;-62
2022/03/15 02:14:37;;;;;;;5.38;4.50;;;6.50;99.90;;;;;;4973268;28;20254;-61
2022/03/15 02:17:05;;;;;;;5.68;4.20;;;6.50;99.90;;;;;;4974108;28;20206;-62
2022/03/15 02:19:33;;;;;;;5.30;3.95;;;6.50;99.90;;;;;;4973756;28;20202;-61
2022/03/15 02:22:03;;;;;;;6.53;4.68;;;6.60;99.90;;;;;;4973261;28;20245;-61
2022/03/15 02:24:31;;;;;;;5.45;4.15;;;6.60;99.90;;;;;;4973981;28;20207;-62
2022/03/15 02:26:59;;;;;;;9.48;4.50;;;6.80;99.90;;;;;;4973509;28;20694;-62
2022/03/15 02:29:26;;;;;;;5.07;4.45;;;6.60;99.90;;;;;;4974043;28;20199;-61
2022/03/15 02:31:55;;;;;;;4.75;4.20;;;6.60;99.90;;;;;;4973522;28;20726;-62
2022/03/15 02:34:23;;;;;;;4.90;4.40;;;6.50;99.90;;;;;;4973333;28;20998;-61
2022/03/15 02:36:51;;;;;;;8.30;4.60;;;6.40;99.90;;;;;;4972112;28;20293;-61
2022/03/15 02:39:21;;;;;;;8.75;5.05;;;6.50;99.90;;;;;;4973592;28;20286;-61
2022/03/15 02:41:49;;;;;;;4.25;3.72;;;6.50;99.90;;;;;;4973345;28;20699;-62
2022/03/15 02:44:17;;;;;;;5.63;5.03;;;6.60;99.90;;;;;;4973015;28;20676;-61
2022/03/15 02:46:49;;;;;;;6.78;4.85;;;6.50;99.90;;;;;;4973350;28;20277;-62
2022/03/15 02:49:17;;;;;;;4.75;4.10;;;6.40;99.90;;;;;;4972817;28;20297;-60
2022/03/15 02:51:45;;;;;;;5.20;4.50;;;6.40;99.90;;;;;;4972631;28;20218;-62
2022/03/15 02:54:13;;;;;;;7.45;4.78;;;6.60;99.90;;;;;;4973215;28;20770;-62
2022/03/15 02:56:43;;;;;;;5.25;4.07;;;6.50;99.90;;;;;;4973337;28;20195;-61
2022/03/15 02:59:14;;;;;;;6.07;4.88;;;6.50;99.90;;;;;;4973265;28;20581;-61
2022/03/15 03:01:42;;;;;;;6.53;5.07;;;6.50;99.90;;;;;;4972945;28;20241;-62
2022/03/15 03:04:11;;;;;;;5.68;5.10;;;6.50;99.90;;;;;;4972647;28;20206;-60
2022/03/15 03:06:41;;;;;;;5.85;5.22;;;6.30;99.90;;;;;;4972497;28;20479;-62
2022/03/15 03:09:09;;;;;;;6.05;5.45;;;6.30;99.90;;;;;;4973266;28;20222;-61
2022/03/15 03:11:37;;;;;;;5.22;4.72;;;6.50;99.90;;;;;;4972719;28;20318;-61
2022/03/15 03:14:06;;;;;;;4.47;4.07;;;6.60;99.90;;;;;;4971962;28;20321;-61
2022/03/15 03:16:34;;;;;;;7.30;4.43;;;6.60;99.90;;;;;;4972905;28;20227;-61
2022/03/15 03:19:07;;;;;;;5.38;4.88;;;6.60;99.90;;;;;;4972754;28;20217;-60
2022/03/15 03:21:36;;;;;;;4.45;4.00;;;6.80;99.90;;;;;;4972388;28;20330;-61
2022/03/15 03:24:06;;;;;;;7.10;4.20;;;7.10;99.90;;;;;;4972323;28;20202;-61
2022/03/15 03:26:37;;;;;;;6.80;5.05;;;7.30;99.90;;;;;;4966736;28;20202;-61
2022/03/15 03:29:09;;;;;;;5.55;4.45;;;7.20;99.90;;;;;;4967108;28;20214;-61
2022/03/15 03:31:37;;;;;;;7.88;5.53;;;7.10;99.90;;;;;;4972143;28;20237;-61
2022/03/15 03:34:06;;;;;;;6.47;4.95;;;7.00;99.90;;;;;;4972166;28;20312;-61
2022/03/15 03:36:36;;;;;;;6.63;5.20;;;6.70;99.90;;;;;;4972123;28;20842;-60
2022/03/15 03:39:23;;;;;;;5.72;4.80;;;6.60;99.90;;;;;;4970247;28;20213;-61
2022/03/15 03:41:51;;;;;;;5.90;4.45;;;6.60;99.90;;;;;;4971629;28;20221;-61
2022/03/15 03:44:21;;;;;;;6.43;4.40;;;6.70;99.90;;;;;;4972528;28;20241;-61
2022/03/15 03:46:49;;;;;;;5.13;4.72;;;6.70;99.90;;;;;;4972575;28;20202;-61
2022/03/15 03:49:17;;;;;;;7.57;5.85;;;6.60;99.90;;;;;;4972151;28;20206;-61
2022/03/15 03:51:45;;;;;;;4.80;4.40;;;6.60;99.90;;;;;;4971957;28;20235;-62
2022/03/15 03:54:12;;;;;;;5.97;4.60;;;6.50;99.90;;;;;;4971793;28;20203;-62
2022/03/15 03:56:40;;;;;;;5.13;4.63;;;6.50;99.90;;;;;;4972298;28;20309;-62
2022/03/15 03:59:11;;;;;;;9.55;6.00;;;6.40;99.90;;;;;;4971535;28;20286;-62
2022/03/15 04:01:40;;;;;;;5.40;4.90;;;6.40;99.90;;;;;;4971843;28;20258;-61
2022/03/15 04:04:10;;;;;;;6.63;4.85;;;6.40;99.90;;;;;;4971663;28;20664;-61
2022/03/15 04:06:39;;;;;;;4.82;4.43;;;6.30;99.90;;;;;;4971362;28;20202;-61
2022/03/15 04:09:09;;;;;;;6.25;4.63;;;6.50;99.90;;;;;;4971697;28;20202;-62
2022/03/15 04:11:40;;;;;;;7.25;5.15;;;6.50;99.90;;;;;;4971852;28;20665;-62
2022/03/15 04:14:10;;;;;;;5.40;4.90;;;6.60;99.90;;;;;;4965443;28;20209;-62
2022/03/15 04:16:40;;;;;;;6.00;4.55;;;6.80;99.90;;;;;;4971867;28;20289;-61
2022/03/15 04:19:08;;;;;;;7.53;5.45;;;6.90;99.90;;;;;;4972260;28;20226;-61
2022/03/15 04:21:36;;;;;;;7.63;4.90;;;6.90;99.90;;;;;;4971379;28;20759;-61
2022/03/15 04:24:05;;;;;;;6.28;4.65;;;6.80;99.90;;;;;;4966348;28;20206;-61
2022/03/15 04:26:33;;;;;;;6.00;4.50;;;6.70;99.90;;;;;;4971694;28;20281;-61
2022/03/15 04:29:01;;;;;;;6.28;4.25;;;6.80;99.90;;;;;;4972066;28;20285;-61
2022/03/15 04:31:29;;;;;;;6.68;5.07;;;6.80;99.90;;;;;;4971479;28;20266;-62
2022/03/15 04:33:58;;;;;;;5.50;5.00;;;7.00;99.90;;;;;;4971633;28;20199;-61
2022/03/15 04:36:26;;;;;;;5.18;4.75;;;6.80;99.90;;;;;;4971322;28;20942;-61
2022/03/15 04:38:54;;;;;;;5.10;4.60;;;6.80;99.90;;;;;;4972091;28;20620;-61
2022/03/15 04:41:22;;;;;;;7.95;5.43;;;6.80;99.90;;;;;;4971600;28;21092;-62
2022/03/15 04:43:50;;;;;;;6.30;5.07;;;6.80;99.90;;;;;;4971520;28;20238;-61
2022/03/15 04:46:18;;;;;;;7.63;5.20;;;6.70;99.90;;;;;;4972300;28;20305;-62
2022/03/15 04:48:46;;;;;;;8.48;5.95;;;6.70;99.90;;;;;;4971494;28;20203;-62
2022/03/15 04:51:15;;;;;;;5.35;4.80;;;6.70;99.90;;;;;;4971151;28;20775;-61
2022/03/15 04:53:46;;;;;;;5.20;4.57;;;6.70;99.90;;;;;;4971365;28;20205;-61
2022/03/15 04:56:14;;;;;;;5.25;4.75;;;6.70;99.90;;;;;;4971584;28;20666;-61
2022/03/15 04:58:42;;;;;;;5.43;4.93;;;6.70;99.90;;;;;;4971834;28;20277;-61
2022/03/15 05:01:10;;;;;;;5.70;4.93;;;7.00;99.90;;;;;;4972638;28;20277;-61
2022/03/15 05:03:38;;;;;;;5.70;5.20;;;7.00;99.90;;;;;;4971531;28;20244;-61
2022/03/15 05:06:06;;;;;;;5.75;5.22;;;6.90;99.90;;;;;;4971592;28;20279;-61
2022/03/15 05:08:35;;;;;;;5.03;4.43;;;6.90;99.90;;;;;;4971511;28;20286;-62
2022/03/15 05:11:08;;;;;;;6.93;5.22;;;6.90;99.90;;;;;;4971388;28;20310;-62
2022/03/15 05:13:38;;;;;;;8.18;5.63;;;6.90;99.90;;;;;;4975017;28;20699;-62
2022/03/15 05:16:06;;;;;;;6.57;4.50;;;6.90;99.90;;;;;;4975298;28;20266;-62
2022/03/15 05:18:34;;;;;;;6.78;5.22;;;6.90;99.90;;;;;;4975103;28;20199;-61
2022/03/15 05:21:03;;;;;;;4.68;4.25;;;6.90;99.90;;;;;;4974092;28;20266;-62
2022/03/15 05:23:31;;;;;;;6.20;5.60;;;6.80;99.90;;;;;;4974454;28;20206;-62
2022/03/15 05:26:01;;;;;;;5.25;4.30;;;6.80;99.90;;;;;;4975098;28;20218;-61
2022/03/15 05:28:28;;;;;;;6.60;5.80;;;6.80;99.90;;;;;;4975254;28;20486;-62
2022/03/15 05:30:56;;;;;;;5.90;5.30;;;6.90;99.90;;;;;;4974515;28;20227;-61
2022/03/15 05:33:24;;;;;;;5.55;4.47;;;6.80;99.90;;;;;;4974437;28;20230;-61
2022/03/15 05:35:53;;;;;;;8.80;4.93;;;6.90;99.90;;;;;;4974100;28;20298;-61
2022/03/15 05:38:21;;;;;;;5.40;4.82;;;7.00;99.90;;;;;;4974106;28;20298;-61
2022/03/15 05:40:49;;;;;;;9.50;5.30;;;7.00;99.90;;;;;;4972255;28;20302;-61
2022/03/15 05:43:19;;;;;;;5.70;5.18;;;7.20;99.90;;;;;;4974725;28;20246;-61
2022/03/15 05:45:47;;;;;;;7.35;5.15;;;7.10;99.90;;;;;;4973694;28;20195;-61
2022/03/15 05:48:15;;;;;;;5.00;4.60;;;7.00;99.90;;;;;;4966593;28;20301;-62
2022/03/15 05:50:44;;;;;;;7.50;5.13;;;6.90;99.90;;;;;;4971750;28;20840;-62
2022/03/15 05:53:12;;;;;;;5.18;4.78;;;6.70;99.90;;;;;;4971003;28;20294;-62
2022/03/15 05:55:40;;;;;;;5.38;4.82;;;6.80;99.90;;;;;;4968956;28;20636;-62
2022/03/15 05:58:08;;;;;;;5.68;5.13;;;6.70;99.90;;;;;;4969181;28;20833;-61
2022/03/15 06:00:38;;;;;;;7.85;5.57;;;6.70;99.90;;;;;;4967871;28;20226;-62
2022/03/15 06:03:07;;;;;;;6.18;5.00;;;6.70;99.90;;;;;;4968636;28;20238;-62
2022/03/15 06:05:36;;;;;;;6.00;5.40;;;6.70;99.90;;;;;;4968342;28;20618;-62
2022/03/15 06:08:04;;;;;;;7.85;5.75;;;6.70;99.90;;;;;;4968458;28;20290;-61
2022/03/15 06:10:32;;;;;;;7.40;5.50;;;6.70;99.90;;;;;;4968679;28;20230;-61
2022/03/15 06:13:00;;;;;;;6.50;5.45;;;6.60;99.90;;;;;;4967726;28;20217;-62
2022/03/15 06:15:27;;;;;;;7.75;5.07;;;6.60;99.90;;;;;;4968880;28;21063;-62
2022/03/15 06:17:59;;;;;;;6.50;5.18;;;6.60;99.90;;;;;;4965890;28;20305;-63
2022/03/15 06:20:28;;;;;;;6.20;5.60;;;6.60;99.90;;;;;;4970079;28;20290;-61
2022/03/15 06:22:56;;;;;;;7.05;4.97;;;6.60;99.90;;;;;;4966663;28;20334;-62
2022/03/15 06:25:24;;;;;;;7.90;5.38;;;6.70;99.90;;;;;;4962534;28;20245;-62
2022/03/15 06:27:52;;;;;;;5.55;4.38;;;6.70;99.90;;;;;;4968523;28;20199;-62
2022/03/15 06:30:21;;;;;;;5.47;4.70;;;6.80;99.90;;;;;;4962719;28;20293;-62
2022/03/15 06:32:49;;;;;;;5.15;4.75;;;6.80;99.90;;;;;;4961874;28;20289;-62
2022/03/15 06:35:19;;;;;;;6.13;5.50;;;6.90;99.90;;;;;;4962442;28;20234;-62
2022/03/15 06:37:48;;;;;;;7.20;5.40;;;6.90;99.90;;;;;;4967783;28;20318;-63
2022/03/15 06:40:21;;;;;;;6.68;4.75;;;7.00;99.90;;;;;;4968046;28;20218;-62
2022/03/15 06:42:50;;;;;;;4.75;4.20;;;7.00;99.90;;;;;;4967536;28;20704;-62
2022/03/15 06:45:18;;;;;;;5.32;4.88;;;7.00;99.90;;;;;;4970006;28;20381;-62
2022/03/15 06:47:46;;;;;;;6.32;4.75;;;7.00;99.90;;;;;;4970694;28;20293;-63
2022/03/15 06:50:14;;;;;;;5.60;4.95;;;7.10;99.90;;;;;;4968169;28;20282;-63
2022/03/15 06:52:45;;;;;;;5.68;5.10;;;7.10;99.90;;;;;;4966755;28;20223;-66
2022/03/15 06:55:14;;;;;;;6.53;5.20;;;7.20;99.90;;;;;;4967289;28;20239;-63
2022/03/15 06:57:42;;;;;;;5.63;4.95;;;7.20;99.90;;;;;;4968300;28;20310;-63
2022/03/15 07:00:13;;;;;;;7.88;5.82;;;7.30;99.90;;;;;;4968209;28;20249;-63
2022/03/15 07:02:41;;;;;;;6.47;4.65;;;7.40;99.90;;;;;;4968075;28;20233;-62
2022/03/15 07:05:10;;;;;;;5.63;5.03;;;7.40;99.90;;;;;;4968061;28;20946;-62
2022/03/15 07:07:38;;;;;;;9.27;5.35;;;7.40;99.90;;;;;;4967227;28;20724;-63
2022/03/15 07:10:09;;;;;;;6.60;5.63;;;7.50;99.90;;;;;;4966418;28;20249;-63
2022/03/15 07:12:38;;;;;;;6.03;5.53;;;7.40;99.90;;;;;;4966418;28;20322;-62
2022/03/15 07:15:06;;;;;;;5.60;5.10;;;7.30;99.90;;;;;;4969181;28;20643;-62
2022/03/15 07:17:34;;;;;;;9.02;5.70;;;7.30;99.90;;;;;;4967935;28;20317;-63
2022/03/15 07:20:02;;;;;;;6.32;5.82;;;7.30;99.90;;;;;;4967449;28;20294;-63
2022/03/15 07:22:30;;;;;;;7.35;5.80;;;7.30;99.90;;;;;;4966455;28;20234;-63
2022/03/15 07:24:58;;;;;;;9.00;6.65;;;7.30;99.90;;;;;;4967498;28;20301;-61
2022/03/15 07:27:27;;;;;;;8.02;6.40;;;7.30;99.90;;;;;;4966955;28;20199;-61
2022/03/15 07:29:55;;;;;;;8.00;6.10;;;7.30;99.90;;;;;;4967459;28;20964;-62
2022/03/15 07:32:23;;;;;;;8.90;5.70;;;7.30;99.90;;;;;;4965747;28;20677;-61
2022/03/15 07:34:50;;;;;;;7.03;6.32;;;7.30;99.90;;;;;;4971819;28;20307;-64
2022/03/15 07:37:18;;;;;;;7.60;5.75;;;7.40;99.90;;;;;;4970565;28;20305;-62
2022/03/15 07:39:46;;;;;;;8.23;6.90;;;7.30;99.90;;;;;;4970942;28;20585;-62
2022/03/15 07:42:15;;;;;;;7.60;6.53;;;7.30;99.90;;;;;;4970400;28;20223;-62
2022/03/15 07:44:45;;;;;;;7.88;6.53;;;7.30;99.90;;;;;;4973121;28;20301;-61
2022/03/15 07:47:14;;;;;;;6.32;5.50;;;7.40;99.90;;;;;;4972831;28;20203;-62
2022/03/15 07:49:42;;;;;;;7.50;6.13;;;7.60;99.90;;;;;;4966869;28;20301;-61
2022/03/15 07:52:13;;;;;;;5.72;5.05;;;7.60;99.90;;;;;;4972038;28;20293;-62
2022/03/15 07:54:42;;;;;;;6.00;4.85;;;7.70;99.90;;;;;;4972667;28;20202;-61
2022/03/15 07:57:10;;;;;;;5.22;4.72;;;7.80;99.90;;;;;;4972501;28;20254;-61
2022/03/15 07:59:38;;;;;;;6.10;5.03;;;7.90;99.90;;;;;;4972712;28;20210;-61
2022/03/15 08:02:07;;;;;;;7.10;4.78;;;7.80;99.90;;;;;;4972098;28;20265;-62
2022/03/15 08:04:36;;;;;;;6.22;5.65;;;7.90;99.90;;;;;;4972177;28;20252;-62
2022/03/15 08:07:04;;;;;;;7.40;5.25;;;7.80;99.90;;;;;;4972354;28;20202;-62
2022/03/15 08:09:32;;;;;;;8.90;5.00;;;7.80;99.90;;;;;;4972191;28;20206;-62
2022/03/15 08:12:00;;;;;;;8.52;5.32;;;7.80;99.90;;;;;;4976529;28;20258;-61
2022/03/15 08:14:28;;;;;;;4.72;4.10;;;7.70;99.90;;;;;;4972416;28;20679;-62
2022/03/15 08:16:59;;;;;;;8.85;5.47;;;7.70;99.90;;;;;;4972369;28;20633;-62
2022/03/15 08:19:28;;;;;;;6.32;4.60;;;7.50;99.90;;;;;;4972463;28;20643;-62
2022/03/15 08:22:01;;;;;;;5.30;4.82;;;7.60;99.90;;;;;;4971719;28;20234;-62
2022/03/15 08:24:29;;;;;;;5.57;5.03;;;7.60;99.90;;;;;;4972413;28;20265;-61
2022/03/15 08:26:57;;;;;;;6.35;4.97;;;7.60;99.90;;;;;;4972303;28;20443;-62
2022/03/15 08:29:25;;;;;;;7.45;4.75;;;7.60;99.90;;;;;;4972369;28;20297;-62
2022/03/15 08:31:58;;;;;;;8.45;5.60;;;7.60;99.90;;;;;;4972098;28;20231;-62
2022/03/15 08:34:28;;;;;;;7.20;5.63;;;7.70;99.90;;;;;;4971995;28;20242;-62
2022/03/15 08:36:56;;;;;;;7.57;5.25;;;7.80;99.90;;;;;;4971888;28;20274;-62
2022/03/15 08:39:24;;;;;;;6.68;4.70;;;7.80;99.90;;;;;;4972126;28;20245;-62
2022/03/15 08:41:53;;;;;;;5.80;5.30;;;7.90;99.90;;;;;;4972670;28;20313;-62
2022/03/15 08:44:22;;;;;;;5.78;4.65;;;7.90;99.90;;;;;;4971969;28;20252;-61
2022/03/15 08:46:50;;;;;;;5.82;4.95;;;7.90;99.90;;;;;;4973696;28;20281;-63
2022/03/15 08:49:20;;;;;;;5.85;5.10;;;7.90;99.90;;;;;;4975743;28;20206;-62
2022/03/15 08:51:50;;;;;;;5.85;4.53;;;7.90;99.90;;;;;;4975609;28;20234;-62
2022/03/15 08:54:20;;;;;;;6.47;5.05;;;8.00;99.90;;;;;;4975794;28;20214;-61
2022/03/15 08:56:47;;;;;;;9.23;5.40;;;8.00;99.90;;;;;;4975827;28;20625;-61
2022/03/15 08:59:16;;;;;;;6.20;5.40;;;8.00;99.90;;;;;;4975843;28;20226;-62
2022/03/15 09:01:44;;;;;;;5.35;4.85;;;8.00;99.90;;;;;;4974880;28;20313;-63
2022/03/15 09:04:13;;;;;;;6.50;5.07;;;8.00;99.90;;;;;;4975371;28;20715;-63
2022/03/15 09:06:41;;;;;;;9.30;5.55;;;8.00;99.90;;;;;;4976165;28;20289;-62
2022/03/15 09:09:11;;;;;;;6.15;5.43;;;8.00;99.90;;;;;;4975291;28;20203;-62
2022/03/15 09:11:39;;;;;;;5.68;5.13;;;8.00;99.90;;;;;;4978365;28;20246;-62
2022/03/15 09:14:07;;;;;;;6.30;5.70;;;8.10;99.90;;;;;;4974972;28;20238;-63
2022/03/15 09:16:35;;;;;;;7.65;6.10;;;8.20;99.90;;;;;;4975391;28;20226;-62
2022/03/15 09:19:04;;;;;;;5.93;5.30;;;8.20;99.90;;;;;;4968630;28;20227;-63
2022/03/15 09:21:32;;;;;;;6.00;5.00;;;8.20;99.90;;;;;;4968762;28;20261;-62
2022/03/15 09:24:00;;;;;;;6.47;5.75;;;8.20;99.90;;;;;;4968917;28;20242;-62
2022/03/15 09:26:29;;;;;;;11.02;5.40;;;8.30;99.90;;;;;;4968930;28;20645;-63
2022/03/15 09:28:57;;;;;;;7.22;5.57;;;8.30;99.90;;;;;;4968892;28;20293;-63
2022/03/15 09:31:25;;;;;;;10.27;6.22;;;8.30;99.90;;;;;;4969011;28;20301;-62
2022/03/15 09:33:53;;;;;;;6.00;4.53;;;8.30;99.90;;;;;;4968786;28;20225;-62
2022/03/15 09:36:21;;;;;;;7.93;6.05;;;8.30;99.90;;;;;;4975091;28;20238;-63
2022/03/15 09:38:49;;;;;;;6.03;5.53;;;8.30;99.90;;;;;;4974700;28;20321;-63
2022/03/15 09:41:18;;;;;;;7.25;5.30;;;8.30;99.90;;;;;;4981512;28;20644;-63
2022/03/15 09:43:49;;;;;;;6.05;5.50;;;8.40;99.90;;;;;;4975062;28;20285;-63
2022/03/15 09:46:21;;;;;;;7.00;5.82;;;8.40;99.90;;;;;;4974992;28;20281;-63
2022/03/15 09:49:10;;;;;;;6.35;5.72;;;8.40;99.90;;;;;;4974765;28;20207;-63
2022/03/15 09:51:38;;;;;;;6.90;5.82;;;8.40;99.90;;;;;;4975174;28;20253;-63
2022/03/15 09:54:08;;;;;;;11.18;5.30;;;8.40;99.90;;;;;;4974638;28;20234;-62
2022/03/15 09:56:38;;;;;;;8.07;6.30;;;8.40;99.90;;;;;;4974836;28;20221;-63
2022/03/15 09:59:12;;;;;;;8.68;6.00;;;8.40;99.90;;;;;;4974446;28;20231;-63
2022/03/15 10:01:40;;;;;;;8.15;5.63;;;8.40;99.90;;;;;;4974645;28;20325;-62
2022/03/15 10:04:09;;;;;;;6.03;5.35;;;8.40;99.90;;;;;;4974356;28;20203;-63
2022/03/15 10:06:37;;;;;;;6.28;5.60;;;8.40;99.90;;;;;;4974653;28;20621;-63
2022/03/15 10:09:06;;;;;;;5.65;5.15;;;8.30;99.90;;;;;;4973968;28;20289;-61
2022/03/15 10:11:34;;;;;;;9.68;6.20;;;8.40;99.90;;;;;;4977024;28;20322;-62
2022/03/15 10:14:04;;;;;;;6.88;6.18;;;8.40;99.90;;;;;;4974375;28;20215;-63
2022/03/15 10:16:35;;;;;;;8.60;6.30;;;8.50;99.90;;;;;;4974421;28;20191;-63
2022/03/15 10:19:04;;;;;;;6.35;5.75;;;8.40;99.90;;;;;;4973925;28;20241;-63
2022/03/15 10:21:44;;;;;;;6.15;5.50;;;8.50;99.90;;;;;;4974107;28;20333;-62
2022/03/15 10:24:17;;;;;;;7.38;5.90;;;8.50;99.90;;;;;;4974209;28;20585;-63
2022/03/15 10:26:47;;;;;;;9.20;6.18;;;8.50;99.90;;;;;;4974201;28;20290;-63
2022/03/15 10:29:16;;;;;;;5.72;5.18;;;8.60;99.90;;;;;;4973926;28;20241;-62
2022/03/15 10:31:46;;;;;;;6.75;6.00;;;8.60;99.90;;;;;;4973996;28;20724;-63
2022/03/15 10:34:17;;;;;;;9.15;6.60;;;8.60;99.90;;;;;;4973886;28;20202;-63
2022/03/15 10:36:46;;;;;;;8.25;5.90;;;8.60;99.90;;;;;;4973948;28;20692;-63
2022/03/15 10:39:16;;;;;;;7.25;5.93;;;8.60;99.90;;;;;;4973647;28;20253;-62
2022/03/15 10:41:46;;;;;;;9.40;6.72;;;8.50;99.90;;;;;;4979191;28;20755;-63
2022/03/15 10:44:19;;;;;;;9.80;6.78;;;8.40;99.90;;;;;;4973766;28;20256;-63
2022/03/15 10:47:00;;;;;;;6.90;6.15;;;8.50;99.90;;;;;;4973918;28;20226;-63
2022/03/15 10:49:29;;;;;;;10.20;7.20;;;8.40;99.90;;;;;;4973668;28;20198;-62
2022/03/15 10:51:58;;;;;;;7.45;6.65;;;8.50;99.90;;;;;;4973276;28;20322;-62
2022/03/15 10:54:29;;;;;;;7.50;6.45;;;8.60;99.90;;;;;;4973559;28;20229;-63
2022/03/15 10:56:58;;;;;;;7.85;6.65;;;8.60;99.90;;;;;;4973552;28;20234;-63
2022/03/15 10:59:39;;;;;;;7.85;6.40;;;8.60;99.90;;;;;;4973816;28;20317;-67
2022/03/15 11:02:10;;;;;;;9.98;6.93;;;8.60;99.90;;;;;;4989905;28;20329;-62
2022/03/15 11:04:46;;;;;;;8.70;6.55;;;8.60;99.90;;;;;;4992576;28;20210;-62
2022/03/15 11:07:16;;;;;;;6.72;6.13;;;8.70;99.90;;;;;;4992985;28;20651;-62
2022/03/15 11:09:44;;;;;;;9.13;7.47;;;8.70;99.90;;;;;;4991790;28;20240;-62
2022/03/15 11:12:12;;;;;;;8.88;6.97;;;8.80;99.90;;;;;;4992441;28;20660;-62
2022/03/15 11:14:44;;;;;;;9.38;7.72;;;8.80;99.90;;;;;;4992699;28;20300;-62
2022/03/15 11:17:21;;;;;;;8.35;7.55;;;8.80;99.90;;;;;;4992692;28;20237;-61
2022/03/15 11:19:50;;;;;;;8.73;7.78;;;8.90;99.90;;;;;;4992827;28;20249;-61
2022/03/15 11:22:21;;;;;;;12.68;8.85;;;8.80;99.90;;;;;;4992992;28;20222;-62
2022/03/15 11:24:59;;;;;;;14.40;8.40;;;8.80;99.90;;;;;;4992239;28;20226;-62
2022/03/15 11:27:31;;;;;;;10.40;7.93;;;8.80;99.90;;;;;;4992744;28;20309;-62
2022/03/15 11:30:02;;;;;;;10.30;8.63;;;8.80;99.90;;;;;;4992271;28;20312;-62
2022/03/15 11:32:33;;;;;;;14.60;9.32;;;8.50;99.90;;;;;;4992083;28;20621;-62
2022/03/15 11:35:01;;;;;;;11.63;9.43;;;8.30;99.90;;;;;;4992293;28;20285;-62
2022/03/15 11:37:30;;;;;;;11.40;10.30;;;8.30;99.90;;;;;;4992065;28;20210;-62
2022/03/15 11:39:59;;;;;;;12.23;10.20;;;8.20;99.90;;;;;;4991839;28;21377;-62
2022/03/15 11:42:28;;;;;;;11.93;10.27;;;8.00;99.90;;;;;;4992081;28;20253;-61
2022/03/15 11:45:02;;;;;;;11.63;9.75;;;7.90;99.90;;;;;;4991954;28;20288;-62
2022/03/15 11:47:43;;;;;;;11.85;10.02;;;7.80;99.90;;;;;;4992124;28;20226;-62
2022/03/15 11:50:21;;;;;;;11.00;9.52;;;7.90;99.90;;;;;;4992110;28;20515;-62
2022/03/15 11:53:01;;;;;;;11.68;9.77;;;7.90;99.90;;;;;;4991915;28;20292;-62
2022/03/15 11:55:35;;;;;;;14.75;10.02;;;7.90;99.90;;;;;;4991991;28;20205;-61
2022/03/15 11:58:05;;;;;;;12.20;10.80;;;7.90;99.90;;;;;;4992304;28;20232;-62
2022/03/15 12:00:37;;;;;;;11.48;10.20;;;7.90;99.90;;;;;;4991796;28;20333;-62
2022/03/15 12:03:07;;;;;;;12.70;10.60;;;7.90;99.90;;;;;;4991753;28;20603;-62
2022/03/15 12:05:45;;;;;;;11.75;10.75;;;7.80;99.90;;;;;;4991933;28;20659;-62
2022/03/15 12:08:18;;;;;;;14.55;11.10;;;7.80;99.90;;;;;;4991655;28;20245;-62
2022/03/15 12:10:52;;;;;;;11.73;10.57;;;7.80;99.90;;;;;;4991542;28;20601;-62
2022/03/15 12:13:34;;;;;;;12.68;11.50;;;7.70;99.90;;;;;;4992080;28;20618;-62
2022/03/15 12:16:18;;;;;;;13.57;12.10;;;7.70;99.90;;;;;;4991878;28;20248;-62
2022/03/15 12:18:54;;;;;;;13.77;11.10;;;7.70;99.90;;;;;;4992252;28;20586;-62
2022/03/15 12:21:27;;;;;;;12.05;10.95;;;7.60;99.90;;;;;;4987712;28;20320;-62
2022/03/15 12:23:55;;;;;;;13.57;11.90;;;7.60;99.90;;;;;;4995856;28;20233;-62
2022/03/15 12:26:26;;;;;;;13.35;10.68;;;7.60;99.90;;;;;;4995787;28;20234;-62
2022/03/15 12:29:02;;;;;;;15.52;12.07;;;7.70;99.90;;;;;;4996196;28;20202;-62
2022/03/15 12:31:38;;;;;;;13.18;11.82;;;7.60;99.90;;;;;;4995908;28;20226;-62
2022/03/15 12:34:10;;;;;;;12.10;10.88;;;7.60;99.90;;;;;;4995634;28;20209;-62
2022/03/15 12:36:41;;;;;;;14.40;13.00;;;7.50;99.90;;;;;;4996411;28;20237;-62
2022/03/15 12:39:10;;;;;;;17.98;13.07;;;7.50;99.90;;;;;;4995825;28;20325;-62
2022/03/15 12:41:43;;;;;;;16.55;13.98;;;7.50;99.90;;;;;;4995910;28;20315;-62
2022/03/15 12:44:12;;;;;;;18.38;13.68;;;7.40;99.90;;;;;;4995374;28;20675;-62
2022/03/15 12:46:42;;;;;;;14.48;12.98;;;7.40;99.90;;;;;;4989332;28;20241;-62
2022/03/15 12:49:16;;;;;;;16.27;14.27;;;7.40;99.90;;;;;;4989761;28;20202;-62
2022/03/15 12:51:47;;;;;;;15.68;14.02;;;7.30;99.90;;;;;;4990232;28;20260;-62
2022/03/15 12:54:15;;;;;;;18.23;14.55;;;7.30;99.90;;;;;;4995182;28;20232;-61
2022/03/15 12:56:47;;;;;;;16.33;14.80;;;7.20;99.90;;;;;;4995602;28;20234;-61
2022/03/15 12:59:19;;;;;;;17.15;13.93;;;7.20;99.90;;;;;;4995433;28;20276;-62
2022/03/15 13:01:48;;;;;;;16.92;15.15;;;7.20;99.90;;;;;;4995220;28;20332;-61
2022/03/15 13:04:32;;;;;;;18.25;15.80;;;7.10;99.90;;;;;;4995356;28;20209;-62
2022/03/15 13:07:04;;;;;;;17.65;15.55;;;7.10;99.90;;;;;;4995416;28;20199;-62